sensor_id;sensor_type;location;lat;lon;timestamp;temperature;humidity
21023;DHT22;10669;51.076;3.714;2023-01-01T00:01:10;15.10;99.90
21023;DHT22;10669;51.076;3.714;2023-01-01T00:03:39;15.10;99.90
21023;DHT22;10669;51.076;3.714;2023-01-01T00:06:12;15.10;99.90
21023;DHT22;10669;51.076;3.714;2023-01-01T00:08:47;15.00;99.90
21023;DHT22;10669;51.076;3.714;2023-01-01T00:11:16;15.00;99.90
21023;DHT22;10669;51.076;3.714;2023-01-01T00:13:42;15.00;99.90
21023;DHT22;10669;51.076;3.714;2023-01-01T00:16:13;15.00;99.90
21023;DHT22;10669;51.076;3.714;2023-01-01T00:18:42;15.00;99.90
21023;DHT22;10669;51.076;3.714;2023-01-01T00:21:12;15.00;99.90
21023;DHT22;10669;51.076;3.714;2023-01-01T00:23:38;15.10;99.90
21023;DHT22;10669;51.076;3.714;2023-01-01T00:26:17;15.00;99.90
21023;DHT22;10669;51.076;3.714;2023-01-01T00:28:46;15.10;99.90
21023;DHT22;10669;51.076;3.714;2023-01-01T00:31:17;15.10;99.90
21023;DHT22;10669;51.076;3.714;2023-01-01T00:33:45;15.10;99.90
21023;DHT22;10669;51.076;3.714;2023-01-01T00:36:15;15.00;99.90
21023;DHT22;10669;51.076;3.714;2023-01-01T00:38:44;15.10;99.90
21023;DHT22;10669;51.076;3.714;2023-01-01T00:41:13;15.10;99.90
21023;DHT22;10669;51.076;3.714;2023-01-01T00:43:39;15.10;99.90
21023;DHT22;10669;51.076;3.714;2023-01-01T00:46:09;14.90;99.90
21023;DHT22;10669;51.076;3.714;2023-01-01T00:48:38;15.00;1.00
21023;DHT22;10669;51.076;3.714;2023-01-01T00:51:05;14.90;1.00
21023;DHT22;10669;51.076;3.714;2023-01-01T00:53:31;14.80;1.00
21023;DHT22;10669;51.076;3.714;2023-01-01T00:56:00;14.90;1.00
21023;DHT22;10669;51.076;3.714;2023-01-01T00:58:31;14.90;1.00
21023;DHT22;10669;51.076;3.714;2023-01-01T01:01:00;14.80;1.00
21023;DHT22;10669;51.076;3.714;2023-01-01T01:03:29;14.80;1.00
21023;DHT22;10669;51.076;3.714;2023-01-01T01:08:33;14.70;1.00
21023;DHT22;10669;51.076;3.714;2023-01-01T01:13:36;14.80;99.90
21023;DHT22;10669;51.076;3.714;2023-01-01T01:18:56;14.60;99.90
21023;DHT22;10669;51.076;3.714;2023-01-01T01:21:32;14.80;99.90
21023;DHT22;10669;51.076;3.714;2023-01-01T01:24:00;14.70;99.90
21023;DHT22;10669;51.076;3.714;2023-01-01T01:26:28;14.70;99.90
21023;DHT22;10669;51.076;3.714;2023-01-01T01:28:55;14.70;99.90
21023;DHT22;10669;51.076;3.714;2023-01-01T01:31:24;14.70;99.90
21023;DHT22;10669;51.076;3.714;2023-01-01T01:33:53;14.70;99.90
21023;DHT22;10669;51.076;3.714;2023-01-01T01:36:19;14.70;99.90
21023;DHT22;10669;51.076;3.714;2023-01-01T01:38:49;14.70;99.90
21023;DHT22;10669;51.076;3.714;2023-01-01T01:41:18;14.70;99.90
21023;DHT22;10669;51.076;3.714;2023-01-01T01:43:59;14.70;99.90
21023;DHT22;10669;51.076;3.714;2023-01-01T01:46:33;14.70;99.90
21023;DHT22;10669;51.076;3.714;2023-01-01T01:49:14;14.70;99.90
21023;DHT22;10669;51.076;3.714;2023-01-01T01:51:44;14.80;99.90
21023;DHT22;10669;51.076;3.714;2023-01-01T01:54:21;14.80;99.90
21023;DHT22;10669;51.076;3.714;2023-01-01T01:57:01;14.70;99.90
21023;DHT22;10669;51.076;3.714;2023-01-01T01:59:31;14.70;99.90
21023;DHT22;10669;51.076;3.714;2023-01-01T02:01:59;14.70;1.00
21023;DHT22;10669;51.076;3.714;2023-01-01T02:04:28;14.70;1.00
21023;DHT22;10669;51.076;3.714;2023-01-01T02:06:57;14.60;1.00
21023;DHT22;10669;51.076;3.714;2023-01-01T02:09:23;14.60;1.00
21023;DHT22;10669;51.076;3.714;2023-01-01T02:11:51;14.70;1.00
21023;DHT22;10669;51.076;3.714;2023-01-01T02:14:20;14.70;1.00
21023;DHT22;10669;51.076;3.714;2023-01-01T02:17:05;14.70;1.00
21023;DHT22;10669;51.076;3.714;2023-01-01T02:29:18;14.70;1.00
21023;DHT22;10669;51.076;3.714;2023-01-01T02:31:53;14.60;1.00
21023;DHT22;10669;51.076;3.714;2023-01-01T02:34:26;14.70;1.00
21023;DHT22;10669;51.076;3.714;2023-01-01T02:36:56;14.60;1.00
21023;DHT22;10669;51.076;3.714;2023-01-01T02:39:28;14.60;1.00
21023;DHT22;10669;51.076;3.714;2023-01-01T02:41:59;14.70;1.00
21023;DHT22;10669;51.076;3.714;2023-01-01T02:44:31;14.60;1.00
21023;DHT22;10669;51.076;3.714;2023-01-01T02:47:08;14.60;1.00
21023;DHT22;10669;51.076;3.714;2023-01-01T02:49:41;14.60;1.00
21023;DHT22;10669;51.076;3.714;2023-01-01T02:58:16;14.50;1.00
21023;DHT22;10669;51.076;3.714;2023-01-01T03:01:12;14.50;1.00
21023;DHT22;10669;51.076;3.714;2023-01-01T03:03:55;14.60;1.00
21023;DHT22;10669;51.076;3.714;2023-01-01T03:06:54;14.60;1.00
21023;DHT22;10669;51.076;3.714;2023-01-01T03:12:48;14.60;1.00
21023;DHT22;10669;51.076;3.714;2023-01-01T03:18:06;14.50;1.00
21023;DHT22;10669;51.076;3.714;2023-01-01T03:20:42;14.60;1.00
21023;DHT22;10669;51.076;3.714;2023-01-01T03:23:16;14.50;1.00
21023;DHT22;10669;51.076;3.714;2023-01-01T03:25:50;14.50;1.00
21023;DHT22;10669;51.076;3.714;2023-01-01T03:28:24;14.50;1.00
21023;DHT22;10669;51.076;3.714;2023-01-01T03:30:53;14.60;1.00
21023;DHT22;10669;51.076;3.714;2023-01-01T03:33:38;14.60;1.00
21023;DHT22;10669;51.076;3.714;2023-01-01T03:38:51;14.60;1.00
21023;DHT22;10669;51.076;3.714;2023-01-01T03:41:48;14.60;1.00
21023;DHT22;10669;51.076;3.714;2023-01-01T03:44:42;14.60;1.00
21023;DHT22;10669;51.076;3.714;2023-01-01T03:47:08;14.60;1.00
21023;DHT22;10669;51.076;3.714;2023-01-01T03:49:34;14.70;1.00
21023;DHT22;10669;51.076;3.714;2023-01-01T03:52:25;14.60;1.00
21023;DHT22;10669;51.076;3.714;2023-01-01T03:57:56;14.70;1.00
21023;DHT22;10669;51.076;3.714;2023-01-01T04:00:32;14.70;1.00
21023;DHT22;10669;51.076;3.714;2023-01-01T04:03:14;14.70;1.00
21023;DHT22;10669;51.076;3.714;2023-01-01T04:05:44;14.70;1.00
21023;DHT22;10669;51.076;3.714;2023-01-01T04:08:13;14.80;1.00
21023;DHT22;10669;51.076;3.714;2023-01-01T04:10:43;14.80;1.00
21023;DHT22;10669;51.076;3.714;2023-01-01T04:13:12;14.70;1.00
21023;DHT22;10669;51.076;3.714;2023-01-01T04:15:41;14.70;1.00
21023;DHT22;10669;51.076;3.714;2023-01-01T04:18:09;14.60;1.00
21023;DHT22;10669;51.076;3.714;2023-01-01T04:20:35;14.60;1.00
21023;DHT22;10669;51.076;3.714;2023-01-01T04:23:03;14.50;1.00
21023;DHT22;10669;51.076;3.714;2023-01-01T04:25:31;14.30;1.00
21023;DHT22;10669;51.076;3.714;2023-01-01T04:27:57;14.20;4.10
21023;DHT22;10669;51.076;3.714;2023-01-01T04:30:24;14.00;14.50
21023;DHT22;10669;51.076;3.714;2023-01-01T04:32:53;13.80;29.10
21023;DHT22;10669;51.076;3.714;2023-01-01T04:35:21;13.60;42.20
21023;DHT22;10669;51.076;3.714;2023-01-01T04:37:46;13.50;48.60
21023;DHT22;10669;51.076;3.714;2023-01-01T04:40:14;13.20;1.00
21023;DHT22;10669;51.076;3.714;2023-01-01T04:42:40;12.90;1.00
21023;DHT22;10669;51.076;3.714;2023-01-01T04:45:08;12.80;1.00
21023;DHT22;10669;51.076;3.714;2023-01-01T04:47:36;12.60;1.00
21023;DHT22;10669;51.076;3.714;2023-01-01T04:50:05;12.60;1.00
21023;DHT22;10669;51.076;3.714;2023-01-01T04:52:37;12.50;1.00
21023;DHT22;10669;51.076;3.714;2023-01-01T04:55:06;12.40;1.00
21023;DHT22;10669;51.076;3.714;2023-01-01T04:57:33;12.40;1.00
21023;DHT22;10669;51.076;3.714;2023-01-01T05:00:01;12.40;1.00
21023;DHT22;10669;51.076;3.714;2023-01-01T05:02:30;12.40;1.00
21023;DHT22;10669;51.076;3.714;2023-01-01T05:04:57;12.40;1.00
21023;DHT22;10669;51.076;3.714;2023-01-01T05:07:29;12.50;1.00
21023;DHT22;10669;51.076;3.714;2023-01-01T05:09:56;12.50;1.00
21023;DHT22;10669;51.076;3.714;2023-01-01T05:12:24;12.60;1.00
21023;DHT22;10669;51.076;3.714;2023-01-01T05:14:51;12.60;1.00
21023;DHT22;10669;51.076;3.714;2023-01-01T05:17:20;12.70;1.00
21023;DHT22;10669;51.076;3.714;2023-01-01T05:19:45;12.60;1.00
21023;DHT22;10669;51.076;3.714;2023-01-01T05:22:12;12.60;1.00
21023;DHT22;10669;51.076;3.714;2023-01-01T05:24:40;12.50;1.00
21023;DHT22;10669;51.076;3.714;2023-01-01T05:27:08;12.50;1.00
21023;DHT22;10669;51.076;3.714;2023-01-01T05:29:36;12.50;3.20
21023;DHT22;10669;51.076;3.714;2023-01-01T05:32:03;12.50;9.80
21023;DHT22;10669;51.076;3.714;2023-01-01T05:34:31;12.50;5.70
21023;DHT22;10669;51.076;3.714;2023-01-01T05:36:58;12.50;1.00
21023;DHT22;10669;51.076;3.714;2023-01-01T05:39:24;12.60;1.00
21023;DHT22;10669;51.076;3.714;2023-01-01T05:41:49;12.60;1.00
21023;DHT22;10669;51.076;3.714;2023-01-01T05:44:17;12.70;1.00
21023;DHT22;10669;51.076;3.714;2023-01-01T05:46:44;12.70;1.00
21023;DHT22;10669;51.076;3.714;2023-01-01T05:49:11;12.80;1.00
21023;DHT22;10669;51.076;3.714;2023-01-01T05:51:40;12.70;1.00
21023;DHT22;10669;51.076;3.714;2023-01-01T05:54:09;12.80;1.00
21023;DHT22;10669;51.076;3.714;2023-01-01T05:56:37;12.90;1.00
21023;DHT22;10669;51.076;3.714;2023-01-01T05:59:09;12.90;1.00
21023;DHT22;10669;51.076;3.714;2023-01-01T06:01:37;12.90;1.00
21023;DHT22;10669;51.076;3.714;2023-01-01T06:04:06;12.80;1.00
21023;DHT22;10669;51.076;3.714;2023-01-01T06:06:33;12.70;1.00
21023;DHT22;10669;51.076;3.714;2023-01-01T06:09:03;12.80;1.00
21023;DHT22;10669;51.076;3.714;2023-01-01T06:11:32;12.70;1.00
21023;DHT22;10669;51.076;3.714;2023-01-01T06:13:59;12.80;1.00
21023;DHT22;10669;51.076;3.714;2023-01-01T06:16:27;12.80;1.00
21023;DHT22;10669;51.076;3.714;2023-01-01T06:18:59;12.80;1.00
21023;DHT22;10669;51.076;3.714;2023-01-01T06:21:27;12.70;1.00
21023;DHT22;10669;51.076;3.714;2023-01-01T06:23:56;12.70;1.00
21023;DHT22;10669;51.076;3.714;2023-01-01T06:26:30;12.70;2.50
21023;DHT22;10669;51.076;3.714;2023-01-01T06:28:59;12.70;7.90
21023;DHT22;10669;51.076;3.714;2023-01-01T06:31:29;12.60;18.30
21023;DHT22;10669;51.076;3.714;2023-01-01T06:33:57;12.50;27.90
21023;DHT22;10669;51.076;3.714;2023-01-01T06:36:23;12.40;43.50
21023;DHT22;10669;51.076;3.714;2023-01-01T06:38:54;12.30;51.10
21023;DHT22;10669;51.076;3.714;2023-01-01T06:41:24;12.30;57.70
21023;DHT22;10669;51.076;3.714;2023-01-01T06:43:57;12.20;64.40
21023;DHT22;10669;51.076;3.714;2023-01-01T06:46:31;12.20;74.90
21023;DHT22;10669;51.076;3.714;2023-01-01T06:49:00;12.00;86.40
21023;DHT22;10669;51.076;3.714;2023-01-01T06:51:32;12.00;93.80
21023;DHT22;10669;51.076;3.714;2023-01-01T06:54:01;11.90;97.10
21023;DHT22;10669;51.076;3.714;2023-01-01T06:56:28;11.90;99.90
21023;DHT22;10669;51.076;3.714;2023-01-01T06:58:55;11.80;99.90
21023;DHT22;10669;51.076;3.714;2023-01-01T07:01:54;11.80;99.90
21023;DHT22;10669;51.076;3.714;2023-01-01T07:04:20;11.90;99.90
21023;DHT22;10669;51.076;3.714;2023-01-01T07:06:46;12.00;99.40
21023;DHT22;10669;51.076;3.714;2023-01-01T07:09:15;11.90;99.60
21023;DHT22;10669;51.076;3.714;2023-01-01T07:11:41;11.80;99.90
21023;DHT22;10669;51.076;3.714;2023-01-01T07:14:08;11.90;99.90
21023;DHT22;10669;51.076;3.714;2023-01-01T07:16:34;11.90;99.90
21023;DHT22;10669;51.076;3.714;2023-01-01T07:19:00;11.80;99.80
21023;DHT22;10669;51.076;3.714;2023-01-01T07:21:32;11.80;99.90
21023;DHT22;10669;51.076;3.714;2023-01-01T07:24:03;11.80;99.90
21023;DHT22;10669;51.076;3.714;2023-01-01T07:26:32;11.80;99.90
21023;DHT22;10669;51.076;3.714;2023-01-01T07:28:59;11.80;99.90
21023;DHT22;10669;51.076;3.714;2023-01-01T07:31:26;11.80;99.90
21023;DHT22;10669;51.076;3.714;2023-01-01T07:33:55;11.90;99.90
21023;DHT22;10669;51.076;3.714;2023-01-01T07:36:24;11.90;99.90
21023;DHT22;10669;51.076;3.714;2023-01-01T07:38:52;11.90;99.90
21023;DHT22;10669;51.076;3.714;2023-01-01T07:41:20;11.90;99.90
21023;DHT22;10669;51.076;3.714;2023-01-01T07:43:49;11.90;99.90
21023;DHT22;10669;51.076;3.714;2023-01-01T07:46:23;12.00;99.90
21023;DHT22;10669;51.076;3.714;2023-01-01T07:48:51;12.10;99.90
21023;DHT22;10669;51.076;3.714;2023-01-01T07:51:19;12.20;99.40
21023;DHT22;10669;51.076;3.714;2023-01-01T07:53:48;12.20;96.30
21023;DHT22;10669;51.076;3.714;2023-01-01T07:56:14;12.30;95.30
21023;DHT22;10669;51.076;3.714;2023-01-01T07:58:41;12.30;95.20
21023;DHT22;10669;51.076;3.714;2023-01-01T08:01:10;12.30;96.40
21023;DHT22;10669;51.076;3.714;2023-01-01T08:03:38;12.40;95.60
21023;DHT22;10669;51.076;3.714;2023-01-01T08:06:11;12.40;96.90
21023;DHT22;10669;51.076;3.714;2023-01-01T08:08:38;12.30;98.70
21023;DHT22;10669;51.076;3.714;2023-01-01T08:11:03;12.50;99.80
21023;DHT22;10669;51.076;3.714;2023-01-01T08:13:32;12.50;96.50
21023;DHT22;10669;51.076;3.714;2023-01-01T08:15:59;12.40;97.00
21023;DHT22;10669;51.076;3.714;2023-01-01T08:18:28;12.40;92.30
21023;DHT22;10669;51.076;3.714;2023-01-01T08:20:56;12.40;92.50
21023;DHT22;10669;51.076;3.714;2023-01-01T08:23:24;12.40;91.10
21023;DHT22;10669;51.076;3.714;2023-01-01T08:25:50;12.40;91.10
21023;DHT22;10669;51.076;3.714;2023-01-01T08:28:18;12.40;91.80
21023;DHT22;10669;51.076;3.714;2023-01-01T08:30:50;12.40;91.30
21023;DHT22;10669;51.076;3.714;2023-01-01T08:33:15;12.40;90.90
21023;DHT22;10669;51.076;3.714;2023-01-01T08:35:43;12.50;90.70
21023;DHT22;10669;51.076;3.714;2023-01-01T08:38:10;12.50;89.10
21023;DHT22;10669;51.076;3.714;2023-01-01T08:40:38;12.50;86.20
21023;DHT22;10669;51.076;3.714;2023-01-01T08:43:07;12.50;88.20
21023;DHT22;10669;51.076;3.714;2023-01-01T08:45:35;12.40;87.50
21023;DHT22;10669;51.076;3.714;2023-01-01T08:48:09;12.40;89.30
21023;DHT22;10669;51.076;3.714;2023-01-01T08:50:35;12.40;89.80
21023;DHT22;10669;51.076;3.714;2023-01-01T08:53:04;12.40;87.60
21023;DHT22;10669;51.076;3.714;2023-01-01T08:55:30;12.50;86.70
21023;DHT22;10669;51.076;3.714;2023-01-01T08:57:56;12.50;83.90
21023;DHT22;10669;51.076;3.714;2023-01-01T09:00:25;12.50;81.50
21023;DHT22;10669;51.076;3.714;2023-01-01T09:02:51;12.60;78.70
21023;DHT22;10669;51.076;3.714;2023-01-01T09:05:18;12.60;76.20
21023;DHT22;10669;51.076;3.714;2023-01-01T09:07:47;12.50;77.30
21023;DHT22;10669;51.076;3.714;2023-01-01T09:10:13;12.50;77.90
21023;DHT22;10669;51.076;3.714;2023-01-01T09:12:39;12.60;76.50
21023;DHT22;10669;51.076;3.714;2023-01-01T09:15:05;12.60;76.40
21023;DHT22;10669;51.076;3.714;2023-01-01T09:17:31;12.60;73.20
21023;DHT22;10669;51.076;3.714;2023-01-01T09:19:56;12.60;73.70
21023;DHT22;10669;51.076;3.714;2023-01-01T09:22:23;12.70;72.80
21023;DHT22;10669;51.076;3.714;2023-01-01T09:24:49;12.60;74.00
21023;DHT22;10669;51.076;3.714;2023-01-01T09:27:15;12.60;71.00
21023;DHT22;10669;51.076;3.714;2023-01-01T09:29:42;12.60;70.90
21023;DHT22;10669;51.076;3.714;2023-01-01T09:32:11;12.50;71.00
21023;DHT22;10669;51.076;3.714;2023-01-01T09:34:38;12.60;70.30
21023;DHT22;10669;51.076;3.714;2023-01-01T09:37:05;12.60;70.40
21023;DHT22;10669;51.076;3.714;2023-01-01T09:39:34;12.60;68.20
21023;DHT22;10669;51.076;3.714;2023-01-01T09:42:30;12.60;64.40
21023;DHT22;10669;51.076;3.714;2023-01-01T09:45:22;12.60;65.30
21023;DHT22;10669;51.076;3.714;2023-01-01T09:47:52;12.60;60.90
21023;DHT22;10669;51.076;3.714;2023-01-01T09:50:34;12.60;62.40
21023;DHT22;10669;51.076;3.714;2023-01-01T09:53:09;12.60;61.30
21023;DHT22;10669;51.076;3.714;2023-01-01T09:55:55;12.60;65.10
21023;DHT22;10669;51.076;3.714;2023-01-01T09:58:24;12.60;65.10
21023;DHT22;10669;51.076;3.714;2023-01-01T10:00:53;12.60;63.30
21023;DHT22;10669;51.076;3.714;2023-01-01T10:06:24;12.70;54.40
21023;DHT22;10669;51.076;3.714;2023-01-01T10:11:39;12.70;55.30
21023;DHT22;10669;51.076;3.714;2023-01-01T10:14:23;12.60;53.30
21023;DHT22;10669;51.076;3.714;2023-01-01T10:16:54;12.70;53.10
21023;DHT22;10669;51.076;3.714;2023-01-01T10:19:34;12.70;52.20
21023;DHT22;10669;51.076;3.714;2023-01-01T10:22:08;12.80;48.20
21023;DHT22;10669;51.076;3.714;2023-01-01T10:24:45;12.80;40.80
21023;DHT22;10669;51.076;3.714;2023-01-01T10:30:17;12.90;38.80
21023;DHT22;10669;51.076;3.714;2023-01-01T10:32:47;12.90;38.10
21023;DHT22;10669;51.076;3.714;2023-01-01T10:35:24;12.90;38.00
21023;DHT22;10669;51.076;3.714;2023-01-01T10:37:57;13.00;27.60
21023;DHT22;10669;51.076;3.714;2023-01-01T10:40:27;13.00;29.20
21023;DHT22;10669;51.076;3.714;2023-01-01T10:43:00;13.10;20.40
21023;DHT22;10669;51.076;3.714;2023-01-01T10:45:43;13.00;23.30
21023;DHT22;10669;51.076;3.714;2023-01-01T10:48:16;13.00;22.30
21023;DHT22;10669;51.076;3.714;2023-01-01T10:50:47;13.00;24.30
21023;DHT22;10669;51.076;3.714;2023-01-01T10:53:41;13.00;20.20
21023;DHT22;10669;51.076;3.714;2023-01-01T10:56:13;13.00;19.20
21023;DHT22;10669;51.076;3.714;2023-01-01T10:58:46;13.10;16.70
21023;DHT22;10669;51.076;3.714;2023-01-01T11:01:27;13.10;12.10
21023;DHT22;10669;51.076;3.714;2023-01-01T11:03:56;13.20;9.40
21023;DHT22;10669;51.076;3.714;2023-01-01T11:06:50;13.10;5.00
21023;DHT22;10669;51.076;3.714;2023-01-01T11:09:28;13.20;9.40
21023;DHT22;10669;51.076;3.714;2023-01-01T11:12:07;13.20;1.00
21023;DHT22;10669;51.076;3.714;2023-01-01T11:14:50;13.30;1.00
21023;DHT22;10669;51.076;3.714;2023-01-01T11:17:31;13.50;1.00
21023;DHT22;10669;51.076;3.714;2023-01-01T11:20:00;13.30;1.00
21023;DHT22;10669;51.076;3.714;2023-01-01T11:22:44;13.50;1.00
21023;DHT22;10669;51.076;3.714;2023-01-01T11:25:28;13.60;1.00
21023;DHT22;10669;51.076;3.714;2023-01-01T11:30:41;13.60;1.00
21023;DHT22;10669;51.076;3.714;2023-01-01T11:33:29;13.70;1.00
21023;DHT22;10669;51.076;3.714;2023-01-01T11:35:57;13.70;1.00
21023;DHT22;10669;51.076;3.714;2023-01-01T11:38:23;13.60;1.00
21023;DHT22;10669;51.076;3.714;2023-01-01T11:40:54;13.60;1.00
21023;DHT22;10669;51.076;3.714;2023-01-01T11:43:23;13.70;1.00
21023;DHT22;10669;51.076;3.714;2023-01-01T11:45:52;13.90;1.00
21023;DHT22;10669;51.076;3.714;2023-01-01T11:48:30;13.60;1.00
21023;DHT22;10669;51.076;3.714;2023-01-01T11:51:00;13.70;1.00
21023;DHT22;10669;51.076;3.714;2023-01-01T11:53:36;13.80;1.00
21023;DHT22;10669;51.076;3.714;2023-01-01T11:56:07;13.80;1.00
21023;DHT22;10669;51.076;3.714;2023-01-01T12:01:06;13.90;1.00
21023;DHT22;10669;51.076;3.714;2023-01-01T12:06:17;13.90;1.00
21023;DHT22;10669;51.076;3.714;2023-01-01T12:08:50;14.00;1.00
21023;DHT22;10669;51.076;3.714;2023-01-01T12:11:29;14.10;1.00
21023;DHT22;10669;51.076;3.714;2023-01-01T12:17:03;14.00;1.00
21023;DHT22;10669;51.076;3.714;2023-01-01T12:22:27;13.90;1.00
21023;DHT22;10669;51.076;3.714;2023-01-01T12:24:54;13.80;1.00
21023;DHT22;10669;51.076;3.714;2023-01-01T12:27:48;13.90;1.00
21023;DHT22;10669;51.076;3.714;2023-01-01T12:30:23;13.90;1.00
21023;DHT22;10669;51.076;3.714;2023-01-01T12:33:07;14.00;1.00
21023;DHT22;10669;51.076;3.714;2023-01-01T12:35:56;13.90;1.00
21023;DHT22;10669;51.076;3.714;2023-01-01T12:44:33;13.70;1.00
21023;DHT22;10669;51.076;3.714;2023-01-01T12:47:06;13.70;1.00
21023;DHT22;10669;51.076;3.714;2023-01-01T12:52:32;13.80;1.00
21023;DHT22;10669;51.076;3.714;2023-01-01T12:57:54;13.90;1.00
21023;DHT22;10669;51.076;3.714;2023-01-01T13:00:21;14.00;1.00
21023;DHT22;10669;51.076;3.714;2023-01-01T13:03:17;14.00;1.00
21023;DHT22;10669;51.076;3.714;2023-01-01T13:05:46;14.00;1.00
21023;DHT22;10669;51.076;3.714;2023-01-01T13:08:12;13.90;1.00
21023;DHT22;10669;51.076;3.714;2023-01-01T13:10:43;13.90;1.00
21023;DHT22;10669;51.076;3.714;2023-01-01T13:13:11;14.00;1.00
21023;DHT22;10669;51.076;3.714;2023-01-01T13:18:26;14.00;1.00
21023;DHT22;10669;51.076;3.714;2023-01-01T13:21:03;13.90;1.00
21023;DHT22;10669;51.076;3.714;2023-01-01T13:50:47;14.00;1.00
21023;DHT22;10669;51.076;3.714;2023-01-01T13:56:15;13.90;1.00
21023;DHT22;10669;51.076;3.714;2023-01-01T13:58:49;13.90;1.00
21023;DHT22;10669;51.076;3.714;2023-01-01T14:03:51;13.90;1.00
21023;DHT22;10669;51.076;3.714;2023-01-01T14:06:36;13.90;1.00
21023;DHT22;10669;51.076;3.714;2023-01-01T14:09:12;13.90;1.00
21023;DHT22;10669;51.076;3.714;2023-01-01T14:11:38;14.00;1.00
21023;DHT22;10669;51.076;3.714;2023-01-01T14:16:51;14.00;1.00
21023;DHT22;10669;51.076;3.714;2023-01-01T14:19:16;14.10;1.00
21023;DHT22;10669;51.076;3.714;2023-01-01T14:21:43;14.10;1.00
21023;DHT22;10669;51.076;3.714;2023-01-01T14:24:14;14.00;1.00
21023;DHT22;10669;51.076;3.714;2023-01-01T14:26:40;14.10;1.00
21023;DHT22;10669;51.076;3.714;2023-01-01T14:29:08;14.10;1.00
21023;DHT22;10669;51.076;3.714;2023-01-01T14:31:44;14.40;1.00
21023;DHT22;10669;51.076;3.714;2023-01-01T14:34:27;14.20;1.00
21023;DHT22;10669;51.076;3.714;2023-01-01T14:36:55;14.20;1.00
21023;DHT22;10669;51.076;3.714;2023-01-01T14:39:29;14.10;1.00
21023;DHT22;10669;51.076;3.714;2023-01-01T14:42:07;13.90;1.00
21023;DHT22;10669;51.076;3.714;2023-01-01T14:44:37;13.80;1.00
21023;DHT22;10669;51.076;3.714;2023-01-01T14:47:08;13.80;1.00
21023;DHT22;10669;51.076;3.714;2023-01-01T14:49:41;13.80;1.00
21023;DHT22;10669;51.076;3.714;2023-01-01T14:52:27;13.90;1.00
21023;DHT22;10669;51.076;3.714;2023-01-01T14:54:57;13.90;1.00
21023;DHT22;10669;51.076;3.714;2023-01-01T14:57:26;13.80;1.00
21023;DHT22;10669;51.076;3.714;2023-01-01T14:59:53;13.90;1.00
21023;DHT22;10669;51.076;3.714;2023-01-01T15:02:24;13.90;1.00
21023;DHT22;10669;51.076;3.714;2023-01-01T15:04:50;14.00;1.00
21023;DHT22;10669;51.076;3.714;2023-01-01T15:07:27;14.00;1.00
21023;DHT22;10669;51.076;3.714;2023-01-01T15:09:56;14.00;1.00
21023;DHT22;10669;51.076;3.714;2023-01-01T15:12:25;13.90;1.00
21023;DHT22;10669;51.076;3.714;2023-01-01T15:14:52;13.90;1.00
21023;DHT22;10669;51.076;3.714;2023-01-01T15:17:21;13.80;1.00
21023;DHT22;10669;51.076;3.714;2023-01-01T15:20:20;13.60;6.90
21023;DHT22;10669;51.076;3.714;2023-01-01T15:22:47;13.50;15.60
21023;DHT22;10669;51.076;3.714;2023-01-01T15:25:14;13.50;21.30
21023;DHT22;10669;51.076;3.714;2023-01-01T15:27:40;13.60;25.90
21023;DHT22;10669;51.076;3.714;2023-01-01T15:32:46;13.60;23.30
21023;DHT22;10669;51.076;3.714;2023-01-01T15:35:21;13.70;23.30
21023;DHT22;10669;51.076;3.714;2023-01-01T15:37:52;13.60;22.00
21023;DHT22;10669;51.076;3.714;2023-01-01T15:47:49;13.50;46.70
21023;DHT22;10669;51.076;3.714;2023-01-01T15:52:55;13.40;57.80
21023;DHT22;10669;51.076;3.714;2023-01-01T15:55:27;13.20;64.10
21023;DHT22;10669;51.076;3.714;2023-01-01T15:57:54;13.20;75.10
21023;DHT22;10669;51.076;3.714;2023-01-01T16:00:23;13.00;74.20
21023;DHT22;10669;51.076;3.714;2023-01-01T16:02:51;13.10;77.60
21023;DHT22;10669;51.076;3.714;2023-01-01T16:05:22;13.00;82.20
21023;DHT22;10669;51.076;3.714;2023-01-01T16:07:57;12.90;87.60
21023;DHT22;10669;51.076;3.714;2023-01-01T16:10:24;12.90;91.90
21023;DHT22;10669;51.076;3.714;2023-01-01T16:12:50;12.90;91.50
21023;DHT22;10669;51.076;3.714;2023-01-01T16:15:15;12.80;93.80
21023;DHT22;10669;51.076;3.714;2023-01-01T16:17:41;12.90;94.80
21023;DHT22;10669;51.076;3.714;2023-01-01T16:20:16;12.80;94.60
21023;DHT22;10669;51.076;3.714;2023-01-01T16:22:43;12.70;97.60
21023;DHT22;10669;51.076;3.714;2023-01-01T16:25:17;12.70;98.60
21023;DHT22;10669;51.076;3.714;2023-01-01T16:27:43;12.70;99.90
21023;DHT22;10669;51.076;3.714;2023-01-01T16:30:10;12.70;99.90
21023;DHT22;10669;51.076;3.714;2023-01-01T16:32:37;12.70;99.90
21023;DHT22;10669;51.076;3.714;2023-01-01T16:35:03;12.60;99.90
21023;DHT22;10669;51.076;3.714;2023-01-01T16:37:32;12.60;99.90
21023;DHT22;10669;51.076;3.714;2023-01-01T16:39:58;12.70;99.90
21023;DHT22;10669;51.076;3.714;2023-01-01T16:42:24;12.70;99.90
21023;DHT22;10669;51.076;3.714;2023-01-01T16:44:49;12.70;99.90
21023;DHT22;10669;51.076;3.714;2023-01-01T16:47:15;12.70;99.90
21023;DHT22;10669;51.076;3.714;2023-01-01T16:49:41;12.70;99.90
21023;DHT22;10669;51.076;3.714;2023-01-01T16:52:06;12.70;99.90
21023;DHT22;10669;51.076;3.714;2023-01-01T16:54:32;12.60;99.90
21023;DHT22;10669;51.076;3.714;2023-01-01T16:56:59;12.60;99.90
21023;DHT22;10669;51.076;3.714;2023-01-01T16:59:24;12.60;99.90
21023;DHT22;10669;51.076;3.714;2023-01-01T17:01:50;12.60;99.90
21023;DHT22;10669;51.076;3.714;2023-01-01T17:04:15;12.60;99.90
21023;DHT22;10669;51.076;3.714;2023-01-01T17:06:41;12.70;99.90
21023;DHT22;10669;51.076;3.714;2023-01-01T17:09:07;12.70;99.90
21023;DHT22;10669;51.076;3.714;2023-01-01T17:11:33;12.70;99.90
21023;DHT22;10669;51.076;3.714;2023-01-01T17:13:59;12.70;99.90
21023;DHT22;10669;51.076;3.714;2023-01-01T17:16:25;12.60;99.90
21023;DHT22;10669;51.076;3.714;2023-01-01T17:18:55;12.60;99.90
21023;DHT22;10669;51.076;3.714;2023-01-01T17:21:21;12.60;99.90
21023;DHT22;10669;51.076;3.714;2023-01-01T17:23:48;12.70;99.90
21023;DHT22;10669;51.076;3.714;2023-01-01T17:26:16;12.70;99.90
21023;DHT22;10669;51.076;3.714;2023-01-01T17:28:44;12.60;99.90
21023;DHT22;10669;51.076;3.714;2023-01-01T17:31:12;12.60;99.90
21023;DHT22;10669;51.076;3.714;2023-01-01T17:33:39;12.60;99.90
21023;DHT22;10669;51.076;3.714;2023-01-01T17:36:05;12.60;99.90
21023;DHT22;10669;51.076;3.714;2023-01-01T17:38:31;12.70;99.90
21023;DHT22;10669;51.076;3.714;2023-01-01T17:41:24;12.80;99.90
21023;DHT22;10669;51.076;3.714;2023-01-01T17:43:50;12.80;99.90
21023;DHT22;10669;51.076;3.714;2023-01-01T17:46:17;12.90;99.90
21023;DHT22;10669;51.076;3.714;2023-01-01T17:48:43;12.90;99.90
21023;DHT22;10669;51.076;3.714;2023-01-01T17:51:10;12.80;99.90
21023;DHT22;10669;51.076;3.714;2023-01-01T17:53:36;12.80;99.90
21023;DHT22;10669;51.076;3.714;2023-01-01T17:56:04;12.70;99.90
21023;DHT22;10669;51.076;3.714;2023-01-01T17:58:31;12.60;99.90
21023;DHT22;10669;51.076;3.714;2023-01-01T18:03:35;12.60;99.90